Aviation Digital Data Service (ADDS)

Output produced by METARs form (1350 UTC 26 May 2018)
found at http://www.aviationweather.gov/adds/metars/
 
TAF SLCO 261100Z 2612/2712 07005KT 9999 NSC TX30/2620Z TN19/2710Z 
     BECMG 2623/2701 00000KT
       
TAF SLCB 261100Z 2612/2712 00000KT 9999 NSC TX27/2619Z TN05/2711Z 
     BECMG 2616/2618 32010KT 
     BECMG 2701/2703 00000KT
       
TAF SLLP 261100Z 2612/2712 23006KT 9999 NSC TX16/2620Z TNM06/2710Z 
     TEMPO 2614/2617 23013KT FEW020
       
TAF SLPS 261100Z 2612/2712 00000KT 9999 NSC TX32/2619Z TN16/2711Z 
     BECMG 2615/2618 06007KT FEW020 
     BECMG 2623/2701 00000KT NSC
       
TAF SLET 261100Z 2612/2712 VRB02KT 9999 BKN017 TX28/2619Z TN18/2711Z 
     BECMG 2614/2617 33015KT SCT023 
     BECMG 2623/2701 32005KT NSC
       
TAF SLVR 261100Z 2612/2712 VRB02KT 9999 BKN017 TX29/2619Z TN18/2711Z 
     BECMG 2614/2617 34015KT SCT023 
     BECMG 2623/2701 33005KT NSC
       
TAF SLTJ 261100Z 2612/2712 00000KT 9999 NSC TX25/2619Z TN04/2711Z 
     BECMG 2618/2620 14010KT 
     BECMG 2700/2702 00000KT
       
TAF SLTR 261100Z 2612/2712 00000KT 9999 NSC TX30/2620Z TN17/2710Z 
     BECMG 2614/2616 16008KT FEW023 
     BECMG 2617/2619 01008KT 
     BECMG 2623/ 2701 00000KT